Time;durP1;ratioP1;P1;durP2;ratioP2;P2;SDS_P1;SDS_P2;PMS_P1;PMS_P2;Temp;Humidity;BMP_temperature;BMP_pressure;BME280_temperature;BME280_humidity;BME280_pressure;Samples;Min_cycle;Max_cycle;Signal;HPM_P1;HPM_P2
2024/01/25 00:01:14;;;;;;;10.73;7.00;;;;;;;7.08;46.46;99090.63;5080458;28;20148;-86
2024/01/25 00:03:40;;;;;;;13.43;7.38;;;;;;;7.08;46.65;99085.44;5063470;28;20036;-86
2024/01/25 00:06:06;;;;;;;12.90;6.82;;;;;;;7.06;46.56;99082.94;5080362;28;20399;-87
2024/01/25 00:08:31;;;;;;;13.60;7.78;;;;;;;7.01;47.01;99064.19;5097131;28;20096;-86
2024/01/25 00:10:58;;;;;;;13.07;7.10;;;;;;;7.04;47.18;99071.81;5064041;28;20082;-86
2024/01/25 00:13:23;;;;;;;14.05;7.68;;;;;;;7.01;46.86;99053.81;5080936;28;20578;-85
2024/01/25 00:15:49;;;;;;;11.85;7.57;;;;;;;7.02;46.85;99049.44;5080984;28;20028;-87
2024/01/25 00:18:14;;;;;;;16.10;8.02;;;;;;;6.99;47.02;99055.66;5080542;28;20463;-86
2024/01/25 00:20:40;;;;;;;12.82;7.88;;;;;;;6.95;47.23;99048.97;5097199;28;20027;-87
2024/01/25 00:23:06;;;;;;;14.18;7.95;;;;;;;6.91;46.71;99065.66;5079669;28;20036;-88
2024/01/25 00:25:31;;;;;;;12.82;8.00;;;;;;;6.87;46.85;99058.94;5080576;28;20124;-87
2024/01/25 00:27:57;;;;;;;14.32;8.20;;;;;;;6.87;47.31;99064.13;5080332;28;20100;-85
2024/01/25 00:30:22;;;;;;;14.43;8.45;;;;;;;6.85;47.18;99059.03;5097160;28;20036;-85
2024/01/25 00:32:48;;;;;;;13.38;8.35;;;;;;;6.81;47.27;99056.69;5063714;28;20043;-86
2024/01/25 00:35:14;;;;;;;14.90;8.35;;;;;;;6.82;47.26;99058.38;5080265;28;20030;-88
2024/01/25 00:37:41;;;;;;;17.23;9.00;;;;;;;6.82;47.23;99076.53;5063255;28;20036;-87
2024/01/25 00:40:08;;;;;;;12.50;7.57;;;;;;;6.80;47.18;99055.84;5081037;28;20027;-88
2024/01/25 00:42:39;;;;;;;15.57;8.30;;;;;;;6.72;47.05;99024.31;5080671;28;20039;-86
2024/01/25 00:45:05;;;;;;;16.58;9.98;;;;;;;6.76;47.24;99043.97;5080564;28;20053;-85
2024/01/25 00:47:31;;;;;;;20.23;10.32;;;;;;;6.70;47.34;99029.59;5079412;28;20424;-88
2024/01/25 00:49:57;;;;;;;15.98;9.57;;;;;;;6.70;47.34;99007.97;5080503;28;20071;-88
2024/01/25 00:52:23;;;;;;;18.42;9.98;;;;;;;6.72;47.58;99008.75;5080329;28;20444;-86
2024/01/25 00:54:49;;;;;;;16.17;9.40;;;;;;;6.70;47.20;99001.06;5079886;28;20098;-87
2024/01/25 00:57:15;;;;;;;15.93;9.70;;;;;;;6.66;47.01;98989.16;5096326;28;20489;-86
2024/01/25 00:59:40;;;;;;;16.17;9.77;;;;;;;6.69;47.09;99007.16;5078648;28;20557;-86
2024/01/25 01:02:06;;;;;;;16.85;10.07;;;;;;;6.69;47.34;98988.16;5079868;28;20024;-87
2024/01/25 01:04:32;;;;;;;17.70;9.18;;;;;;;6.64;47.47;98972.84;5066992;28;20039;-84
2024/01/25 01:06:57;;;;;;;17.25;9.30;;;;;;;6.67;47.55;98987.41;5076028;28;20063;-85
2024/01/25 01:09:23;;;;;;;15.95;8.82;;;;;;;6.68;47.36;98997.69;5075169;28;20159;-86
2024/01/25 01:11:50;;;;;;;14.43;9.00;;;;;;;6.65;47.13;98995.25;5059417;28;20035;-86
2024/01/25 01:14:15;;;;;;;18.08;8.73;;;;;;;6.58;47.55;98993.94;5059395;28;20436;-87
2024/01/25 01:16:41;;;;;;;15.68;8.43;;;;;;;6.61;47.62;99001.56;5059097;28;20028;-85
2024/01/25 01:19:07;;;;;;;13.75;8.75;;;;;;;6.59;47.45;98981.81;5059573;28;20031;-86
2024/01/25 01:21:33;;;;;;;16.52;8.60;;;;;;;6.59;47.49;98984.41;5060103;28;20162;-87
2024/01/25 01:23:59;;;;;;;15.50;7.90;;;;;;;6.56;47.90;98981.97;5059025;28;20047;-85
2024/01/25 01:26:24;;;;;;;14.05;8.73;;;;;;;6.54;47.73;98976.06;5058799;28;20043;-87
2024/01/25 01:28:49;;;;;;;16.67;7.93;;;;;;;6.51;47.28;98972.72;5075700;28;20418;-86
2024/01/25 01:31:15;;;;;;;11.73;7.47;;;;;;;6.51;47.55;98962.34;5075535;28;20043;-85
2024/01/25 01:33:41;;;;;;;13.80;7.75;;;;;;;6.49;47.64;98946.00;5058748;28;20097;-86
2024/01/25 01:36:06;;;;;;;10.27;6.30;;;;;;;6.49;47.22;98940.81;5075543;28;20032;-86
2024/01/25 01:38:32;;;;;;;13.30;7.35;;;;;;;6.51;48.00;98941.59;5042053;28;20442;-85
2024/01/25 01:40:57;;;;;;;12.45;6.82;;;;;;;6.49;47.86;98945.19;5058749;28;20032;-84
2024/01/25 01:43:23;;;;;;;12.20;7.05;;;;;;;6.44;47.75;98937.66;5042101;28;20085;-83
2024/01/25 01:45:49;;;;;;;10.27;6.28;;;;;;;6.47;47.49;98950.44;5042269;28;20081;-84
2024/01/25 01:48:15;;;;;;;11.82;7.30;;;;;;;6.47;47.99;98954.81;5058667;28;20089;-85
2024/01/25 01:50:42;;;;;;;11.23;5.82;;;;;;;6.44;47.55;98932.47;5041928;28;20535;-88
2024/01/25 01:53:07;;;;;;;11.25;5.90;;;;;;;6.48;48.10;98936.56;5042711;28;20444;-88
2024/01/25 01:55:33;;;;;;;10.13;6.50;;;;;;;6.49;47.86;98934.81;5059203;28;20039;-83
2024/01/25 01:57:59;;;;;;;10.48;6.00;;;;;;;6.47;47.89;98940.06;5058226;28;20032;-85
2024/01/25 02:00:24;;;;;;;9.20;6.13;;;;;;;6.47;47.60;98928.88;5058291;28;20040;-86
2024/01/25 02:02:50;;;;;;;9.85;5.68;;;;;;;6.47;47.71;98921.94;5058377;28;20475;-82
2024/01/25 02:05:15;;;;;;;8.88;5.75;;;;;;;6.47;47.70;98918.50;5058409;28;20066;-83
2024/01/25 02:07:41;;;;;;;8.50;5.25;;;;;;;6.47;47.92;98937.50;5057834;28;20472;-84
2024/01/25 02:10:08;;;;;;;11.35;5.53;;;;;;;6.46;48.01;98928.03;5058095;28;20039;-84
2024/01/25 02:12:33;;;;;;;10.05;5.60;;;;;;;6.42;47.45;98917.91;5041135;28;20044;-83
2024/01/25 02:14:59;;;;;;;8.27;5.38;;;;;;;6.45;48.12;98917.75;5074776;28;20498;-83
2024/01/25 02:17:24;;;;;;;8.23;5.40;;;;;;;6.44;48.17;98911.72;5058235;28;20071;-85
2024/01/25 02:19:50;;;;;;;8.75;5.20;;;;;;;6.38;47.55;98887.91;5041446;28;20483;-86
2024/01/25 02:22:17;;;;;;;7.68;5.15;;;;;;;6.42;47.84;98884.19;5058182;28;20044;-85
2024/01/25 02:24:42;;;;;;;9.73;5.28;;;;;;;6.39;47.89;98879.19;5058181;28;20059;-86
2024/01/25 02:27:08;;;;;;;9.30;5.20;;;;;;;6.37;47.91;98875.84;5074920;28;20070;-87
2024/01/25 02:29:33;;;;;;;9.02;5.57;;;;;;;6.37;47.59;98876.69;5041380;28;20101;-85
2024/01/25 02:31:59;;;;;;;12.02;5.97;;;;;;;6.33;48.08;98876.03;5074972;28;20036;-85
2024/01/25 02:34:24;;;;;;;8.35;5.35;;;;;;;6.35;48.09;98873.34;5057860;28;20028;-84
2024/01/25 02:36:50;;;;;;;7.85;4.90;;;;;;;6.37;48.35;98901.78;5041254;28;20185;-85
2024/01/25 02:39:16;;;;;;;8.80;5.45;;;;;;;6.35;48.13;98899.28;5057888;28;20020;-84
2024/01/25 02:41:41;;;;;;;9.50;5.13;;;;;;;6.33;47.86;98882.97;5041299;28;20028;-84
2024/01/25 02:44:08;;;;;;;12.25;5.75;;;;;;;6.31;47.74;98887.41;5058191;28;20040;-86
2024/01/25 02:46:33;;;;;;;10.40;5.53;;;;;;;6.26;47.98;98869.53;5058256;28;20435;-87
2024/01/25 02:48:59;;;;;;;10.23;5.03;;;;;;;6.24;47.75;98863.56;5041240;28;20072;-87
2024/01/25 02:51:24;;;;;;;9.07;5.35;;;;;;;6.20;48.07;98879.38;5041263;28;20040;-88
2024/01/25 02:53:49;;;;;;;8.00;5.18;;;;;;;6.24;48.14;98884.31;5058422;28;20028;-88
2024/01/25 02:56:15;;;;;;;8.40;5.32;;;;;;;6.16;47.87;98879.56;5057726;28;20040;-85
2024/01/25 02:58:40;;;;;;;12.75;5.18;;;;;;;6.19;48.41;98912.25;5057922;28;20040;-85
2024/01/25 03:01:06;;;;;;;7.47;4.72;;;;;;;6.10;48.34;98905.00;5057975;28;20074;-83
2024/01/25 03:03:31;;;;;;;9.82;5.38;;;;;;;6.13;47.75;98894.44;5075072;28;20032;-88
2024/01/25 03:05:57;;;;;;;9.27;4.63;;;;;;;6.10;48.24;98873.88;5058125;28;20032;-82
2024/01/25 03:08:22;;;;;;;8.00;4.45;;;;;;;5.98;48.05;98872.81;5074270;28;20102;-86
2024/01/25 03:10:49;;;;;;;6.47;4.72;;;;;;;5.97;48.13;98884.94;5041054;28;20028;-87
2024/01/25 03:13:16;;;;;;;9.02;4.63;;;;;;;5.98;48.32;98871.06;5058279;28;20036;-88
2024/01/25 03:15:42;;;;;;;6.80;4.50;;;;;;;5.91;48.55;98854.13;5041475;28;20050;-87
2024/01/25 03:18:08;;;;;;;7.88;4.10;;;;;;;5.93;47.92;98877.38;5040701;28;20093;-86
2024/01/25 03:20:33;;;;;;;6.93;4.35;;;;;;;5.80;48.42;98834.03;5041066;28;20104;-85
2024/01/25 03:22:58;;;;;;;8.32;4.93;;;;;;;5.88;48.15;98833.59;5076965;28;20541;-85
2024/01/25 03:25:24;;;;;;;8.88;4.65;;;;;;;5.87;48.16;98831.09;5061524;28;20061;-89
2024/01/25 03:27:49;;;;;;;8.23;4.90;;;;;;;5.86;48.19;98869.09;5045128;28;20036;-89
2024/01/25 03:30:15;;;;;;;7.15;4.70;;;;;;;5.78;48.59;98841.03;5062112;28;20070;-86
2024/01/25 03:32:40;;;;;;;9.02;4.53;;;;;;;5.79;48.38;98849.66;5061062;28;20028;-86
2024/01/25 03:35:08;;;;;;;7.80;4.78;;;;;;;5.79;48.79;98847.06;5061237;28;20058;-87
2024/01/25 03:37:33;;;;;;;7.93;5.25;;;;;;;5.76;48.13;98850.66;5061057;28;20040;-88
2024/01/25 03:39:58;;;;;;;11.52;5.32;;;;;;;5.70;48.72;98832.84;5061000;28;20031;-86
2024/01/25 03:42:24;;;;;;;7.72;5.00;;;;;;;5.70;48.38;98832.84;5060890;28;20439;-85
2024/01/25 03:44:49;;;;;;;8.68;5.13;;;;;;;5.70;48.59;98840.63;5044398;28;20070;-88
2024/01/25 03:47:15;;;;;;;7.88;5.10;;;;;;;5.69;48.32;98835.53;5060807;28;20150;-87
2024/01/25 03:49:40;;;;;;;8.07;4.85;;;;;;;5.66;48.53;98809.78;5044058;28;20084;-87
2024/01/25 03:52:06;;;;;;;9.13;5.57;;;;;;;5.64;48.73;98842.72;5077528;28;20035;-88
2024/01/25 03:54:31;;;;;;;7.05;4.95;;;;;;;5.64;48.65;98840.13;5061180;28;20494;-87
2024/01/25 03:56:57;;;;;;;7.72;4.80;;;;;;;5.61;48.54;98841.13;5044099;28;20034;-87
2024/01/25 03:59:22;;;;;;;11.75;5.85;;;;;;;5.60;48.65;98845.47;5044041;28;20050;-89
2024/01/25 04:01:49;;;;;;;8.52;5.35;;;;;;;5.57;48.84;98847.41;5063892;28;20028;-86
2024/01/25 04:04:17;;;;;;;11.18;5.65;;;;;;;5.51;48.80;98853.72;5044209;28;20027;-86
2024/01/25 04:06:43;;;;;;;8.73;5.68;;;;;;;5.53;48.94;98840.69;5061376;28;20372;-87
2024/01/25 04:09:11;;;;;;;9.27;5.43;;;;;;;5.50;49.16;98857.22;5044236;28;20054;-87
2024/01/25 04:11:37;;;;;;;8.20;5.80;;;;;;;5.44;48.70;98845.47;5044205;28;20131;-86
2024/01/25 04:14:02;;;;;;;9.27;5.63;;;;;;;5.46;49.02;98850.56;5060813;28;20237;-86
2024/01/25 04:16:28;;;;;;;10.02;5.53;;;;;;;5.48;49.17;98871.19;5077108;28;20098;-87
2024/01/25 04:18:54;;;;;;;8.30;5.28;;;;;;;5.46;49.11;98884.22;5060666;28;20098;-86
2024/01/25 04:21:19;;;;;;;11.32;5.72;;;;;;;5.43;49.00;98856.72;5060606;28;20028;-86
2024/01/25 04:23:45;;;;;;;10.52;6.25;;;;;;;5.36;48.82;98849.34;5043909;28;20044;-87
2024/01/25 04:26:10;;;;;;;9.68;5.90;;;;;;;5.35;48.94;98852.88;5060488;28;20517;-86
2024/01/25 04:28:36;;;;;;;12.55;5.82;;;;;;;5.35;48.75;98858.88;5060725;28;20082;-85
2024/01/25 04:31:04;;;;;;;8.95;5.50;;;;;;;5.37;49.05;98864.81;5044609;28;20437;-86
2024/01/25 04:33:30;;;;;;;8.35;5.40;;;;;;;5.36;49.11;98846.78;5044488;28;20158;-87
2024/01/25 04:35:55;;;;;;;8.20;5.38;;;;;;;5.30;49.18;98862.63;5044626;28;20036;-85
2024/01/25 04:38:21;;;;;;;8.05;5.30;;;;;;;5.25;49.11;98866.31;5078161;28;20063;-83
2024/01/25 04:40:47;;;;;;;9.32;5.43;;;;;;;5.25;48.88;98855.94;5045820;28;20475;-77
2024/01/25 04:43:13;;;;;;;8.13;5.20;;;;;;;5.21;48.85;98869.97;5059924;28;20067;-84
2024/01/25 04:45:39;;;;;;;8.38;5.47;;;;;;;5.20;49.12;98865.72;5059763;28;20028;-85
2024/01/25 04:48:06;;;;;;;10.35;5.38;;;;;;;5.23;49.23;98862.97;5045310;28;20070;-81
2024/01/25 04:50:32;;;;;;;10.18;3.92;;;;;;;5.50;65.05;98854.63;5063701;28;20052;-77
2024/01/25 04:52:57;;;;;;;7.28;4.60;;;;;;;5.73;65.38;98868.94;5076126;28;20039;-86
2024/01/25 04:55:24;;;;;;;7.90;4.80;;;;;;;5.71;60.81;98877.69;5059453;28;20028;-80
2024/01/25 04:57:53;;;;;;;9.80;5.05;;;;;;;5.68;59.58;98870.13;5059191;28;20376;-81
2024/01/25 05:00:21;;;;;;;9.55;4.93;;;;;;;5.62;57.81;98873.88;5061176;28;20020;-81
2024/01/25 05:02:47;;;;;;;13.20;4.45;;;;;;;5.79;66.96;98873.78;5062480;28;20050;-80
2024/01/25 05:05:13;;;;;;;8.48;5.10;;;;;;;6.06;69.16;98859.44;5042502;28;20032;-79
2024/01/25 05:07:38;;;;;;;11.85;5.47;;;;;;;5.97;63.62;98842.63;5059376;28;20479;-79
2024/01/25 05:10:04;;;;;;;8.35;5.75;;;;;;;5.87;61.97;98860.44;5059217;28;20039;-83
2024/01/25 05:12:29;;;;;;;10.32;6.35;;;;;;;5.78;60.73;98847.97;5044680;28;20460;-88
2024/01/25 05:14:55;;;;;;;10.10;6.50;;;;;;;5.70;60.18;98850.97;5049912;28;20046;-81
2024/01/25 05:17:20;;;;;;;12.00;6.50;;;;;;;5.62;59.25;98855.75;5096588;28;20036;-79
2024/01/25 05:19:46;;;;;;;8.30;5.80;;;;;;;5.60;58.58;98867.94;5095832;28;20615;-83
2024/01/25 05:22:13;;;;;;;8.50;6.30;;;;;;;5.56;58.11;98858.66;5079665;28;20043;-89
2024/01/25 05:24:38;;;;;;;9.65;6.88;;;;;;;5.54;57.75;98884.63;5066323;28;20031;-92
2024/01/25 05:27:04;;;;;;;15.50;7.28;;;;;;;5.50;57.10;98875.34;5070042;28;20054;-84
2024/01/25 05:29:29;;;;;;;14.38;7.28;;;;;;;5.47;56.76;98869.50;5080370;28;20398;-90
2024/01/25 05:31:57;;;;;;;17.08;7.72;;;;;;;5.44;56.28;98873.94;5083214;28;20028;-89
2024/01/25 05:34:22;;;;;;;11.23;7.50;;;;;;;5.44;56.20;98861.00;5118079;28;20032;-90
2024/01/25 05:36:48;;;;;;;12.98;7.95;;;;;;;5.50;55.97;98857.22;5085762;28;20027;-89
2024/01/25 05:39:14;;;;;;;12.60;7.68;;;;;;;5.50;55.75;98849.44;5072412;28;20024;-90
2024/01/25 05:41:44;;;;;;;13.15;7.68;;;;;;;5.52;55.63;98852.81;5078298;28;20073;-91
2024/01/25 05:44:11;;;;;;;11.43;7.93;;;;;;;5.53;55.18;98846.69;5099203;28;20050;-89
2024/01/25 05:46:36;;;;;;;12.75;7.97;;;;;;;5.51;54.52;98835.59;5094779;28;20063;-90
2024/01/25 05:49:02;;;;;;;13.48;8.57;;;;;;;5.57;54.58;98819.75;5072415;28;20028;-90
2024/01/25 05:51:27;;;;;;;13.95;8.07;;;;;;;5.70;54.18;98826.84;5088843;28;20057;-89
2024/01/25 05:53:53;;;;;;;13.10;8.60;;;;;;;5.80;53.69;98833.16;5068353;28;20069;-91
2024/01/25 05:56:18;;;;;;;15.32;8.15;;;;;;;5.95;53.59;98821.97;5082818;28;20036;-87
2024/01/25 05:58:44;;;;;;;12.65;7.88;;;;;;;6.13;52.68;98820.13;5061897;28;20070;-85
2024/01/25 06:01:10;;;;;;;11.82;7.70;;;;;;;6.39;52.22;98824.72;5080668;28;20032;-87
2024/01/25 06:03:35;;;;;;;13.35;8.30;;;;;;;6.67;51.24;98819.63;5080583;28;20062;-84
2024/01/25 06:06:01;;;;;;;13.65;8.18;;;;;;;7.04;50.68;98819.19;5062332;28;20055;-88
2024/01/25 06:08:26;;;;;;;14.20;8.15;;;;;;;7.42;49.70;98819.44;5062582;28;20032;-86
2024/01/25 06:10:52;;;;;;;17.88;9.55;;;;;;;8.01;48.32;98823.56;5061696;28;20043;-85
2024/01/25 06:13:17;;;;;;;15.23;8.95;;;;;;;8.41;47.48;98835.72;5095736;28;20046;-79
2024/01/25 06:15:43;;;;;;;15.50;9.45;;;;;;;8.58;46.81;98840.69;5061250;28;20134;-80
2024/01/25 06:18:08;;;;;;;22.02;10.40;;;;;;;8.67;46.42;98834.03;5077849;28;20444;-78
2024/01/25 06:20:34;;;;;;;18.48;10.15;;;;;;;9.02;45.02;98839.47;5096482;28;20038;-78
2024/01/25 06:22:59;;;;;;;21.33;11.40;;;;;;;9.58;43.86;98830.41;5077991;28;20028;-80
2024/01/25 06:25:26;;;;;;;19.58;12.50;;;;;;;10.06;42.29;98842.69;5078343;28;20038;-80
2024/01/25 06:27:52;;;;;;;18.75;11.82;;;;;;;10.04;42.36;98862.78;5061700;28;20032;-79
2024/01/25 06:30:19;;;;;;;17.10;11.20;;;;;;;10.45;41.95;98874.63;5078417;28;20032;-80
2024/01/25 06:32:45;;;;;;;21.70;12.50;;;;;;;11.46;40.44;98871.38;5061658;28;20016;-81
2024/01/25 06:35:10;;;;;;;22.35;12.57;;;;;;;11.98;39.85;98873.47;5078679;28;20032;-81
2024/01/25 06:43:04;;;;;;;12.02;8.45;;;;;;;15.04;42.93;98861.25;5187462;22;20058;-79
2024/01/25 06:45:29;;;;;;;15.50;10.05;;;;;;;15.58;39.87;98867.56;4993136;28;20096;-78
2024/01/25 06:47:55;;;;;;;20.60;9.13;;;;;;;16.44;37.53;98866.34;4975764;28;20057;-79
2024/01/25 06:50:20;;;;;;;15.77;10.20;;;;;;;17.76;34.83;98873.28;4975614;28;20030;-79
2024/01/25 06:52:46;;;;;;;12.15;8.73;;;;;;;16.76;35.41;98864.94;4959451;28;20034;-79
2024/01/25 06:55:11;;;;;;;15.02;9.95;;;;;;;15.96;36.03;98854.38;4976304;28;20030;-79
2024/01/25 06:57:38;;;;;;;14.02;9.50;;;;;;;17.35;33.39;98868.66;4963237;28;20095;-79
2024/01/25 07:00:04;;;;;;;18.48;11.10;;;;;;;17.80;32.01;98879.06;4963084;28;20041;-81
2024/01/25 07:02:30;;;;;;;22.15;11.48;;;;;;;17.60;31.25;98845.03;4963247;28;20040;-79
2024/01/25 07:04:56;;;;;;;17.48;11.48;;;;;;;18.34;29.63;98836.44;4963429;28;20030;-78
2024/01/25 07:07:21;;;;;;;17.83;11.90;;;;;;;18.10;29.84;98839.88;4963189;28;20037;-79
2024/01/25 07:09:47;;;;;;;20.13;12.27;;;;;;;17.57;30.65;98837.41;4962721;28;20038;-80
2024/01/25 07:12:12;;;;;;;20.63;11.50;;;;;;;18.57;29.53;98837.44;4963070;28;20034;-80
2024/01/25 07:14:38;;;;;;;27.65;17.15;;;;;;;18.98;26.99;98863.88;4963456;28;20037;-78
2024/01/25 07:17:03;;;;;;;30.40;17.40;;;;;;;18.66;27.15;98855.94;4962777;28;20524;-79
2024/01/25 07:19:29;;;;;;;42.83;18.40;;;;;;;18.40;27.52;98849.00;4978867;28;20026;-79
2024/01/25 07:21:55;;;;;;;33.00;17.85;;;;;;;18.59;27.79;98843.38;4962759;28;20034;-79
2024/01/25 07:24:20;;;;;;;29.13;16.02;;;;;;;17.92;28.65;98832.94;4962809;28;20402;-79
2024/01/25 07:26:46;;;;;;;27.33;14.38;;;;;;;18.05;28.51;98824.53;4962631;28;20043;-80
2024/01/25 07:29:11;;;;;;;23.60;13.13;;;;;;;18.05;28.02;98817.41;4946613;28;20026;-78
2024/01/25 07:31:37;;;;;;;23.02;12.65;;;;;;;17.73;28.55;98804.97;4962603;28;20053;-78
2024/01/25 07:34:02;;;;;;;18.92;12.07;;;;;;;18.26;28.27;98822.25;4946377;28;20096;-79
2024/01/25 07:36:28;;;;;;;17.17;10.95;;;;;;;18.71;27.77;98808.69;4978368;28;20046;-78
2024/01/25 07:38:54;;;;;;;20.30;11.10;;;;;;;18.94;27.62;98811.47;4978883;28;20027;-80
2024/01/25 07:41:19;;;;;;;17.05;11.32;;;;;;;19.34;27.09;98812.34;4978688;28;20065;-78
2024/01/25 07:43:45;;;;;;;18.85;11.60;;;;;;;19.62;27.25;98807.41;4978765;28;20034;-79
2024/01/25 07:46:10;;;;;;;19.73;11.18;;;;;;;19.89;27.01;98807.94;4946528;28;20034;-78
2024/01/25 07:48:36;;;;;;;17.80;11.43;;;;;;;19.62;26.99;98804.75;4946523;28;20057;-79
2024/01/25 07:51:01;;;;;;;18.80;11.00;;;;;;;19.33;27.38;98805.41;4996030;28;20466;-78
2024/01/25 07:53:27;;;;;;;19.45;11.60;;;;;;;19.80;27.15;98809.84;4962023;28;20045;-77
2024/01/25 07:55:52;;;;;;;18.83;10.98;;;;;;;20.14;26.52;98811.25;4946309;28;20076;-78
2024/01/25 07:58:18;;;;;;;20.70;11.48;;;;;;;20.42;26.62;98821.31;4946677;28;20033;-78
2024/01/25 08:00:45;;;;;;;15.25;11.02;;;;;;;20.74;26.25;98820.22;4995766;28;20482;-78
2024/01/25 08:03:10;;;;;;;17.98;10.98;;;;;;;21.04;25.80;98822.91;4962313;28;20089;-78
2024/01/25 08:05:36;;;;;;;16.42;10.80;;;;;;;21.35;25.41;98823.72;4978689;28;20452;-79
2024/01/25 08:08:02;;;;;;;19.55;10.93;;;;;;;21.67;25.10;98827.84;4961683;28;20101;-81
2024/01/25 08:10:27;;;;;;;15.13;10.55;;;;;;;21.92;24.83;98822.16;4946477;28;20121;-81
2024/01/25 08:12:53;;;;;;;14.77;9.63;;;;;;;22.12;27.51;98831.16;4946294;28;20034;-77
2024/01/25 08:15:19;;;;;;;14.75;8.52;;;;;;;22.45;28.32;98830.69;4946146;28;20505;-78
2024/01/25 08:17:44;;;;;;;18.65;9.15;;;;;;;22.72;28.29;98826.44;4978898;28;20045;-88
2024/01/25 08:20:12;;;;;;;16.65;9.82;;;;;;;22.88;27.21;98825.31;4953694;28;20038;-89
2024/01/25 08:22:38;;;;;;;22.23;10.60;;;;;;;23.16;26.69;98815.66;4965967;28;20026;-89
2024/01/25 08:25:04;;;;;;;17.60;10.48;;;;;;;23.42;26.87;98814.97;4952077;28;20089;-92
2024/01/25 08:27:30;;;;;;;22.85;10.70;;;;;;;23.55;26.86;98792.91;4963896;28;20034;-82
2024/01/25 08:29:56;;;;;;;32.05;16.45;;;;;;;23.88;27.78;98805.50;4946579;28;20026;-83
2024/01/25 08:32:21;;;;;;;31.33;16.40;;;;;;;23.95;26.54;98803.69;4961722;28;20076;-82
2024/01/25 08:34:47;;;;;;;46.22;19.55;;;;;;;24.04;26.49;98797.16;4946202;28;20049;-83
2024/01/25 08:37:12;;;;;;;27.02;13.98;;;;;;;24.03;27.39;98800.84;4946369;28;20471;-80
2024/01/25 08:39:38;;;;;;;42.35;21.48;;;;;;;24.28;29.31;98794.94;4961861;28;20038;-79
2024/01/25 08:42:06;;;;;;;28.70;14.65;;;;;;;24.56;27.38;98800.06;4945164;28;20058;-83
2024/01/25 08:44:31;;;;;;;;;;;;;;;24.66;24.57;98808.47;4948090;28;20456;-78
2024/01/25 08:46:57;;;;;;;39.00;20.95;;;;;;;23.91;24.73;98805.97;4978150;28;19921;-80
2024/01/25 08:49:22;;;;;;;50.15;24.95;;;;;;;23.68;25.72;98811.59;4977562;28;20428;-71
2024/01/25 08:51:48;;;;;;;19.27;12.50;;;;;;;22.30;27.05;98822.00;4995048;28;20089;-72
2024/01/25 08:54:13;;;;;;;18.80;10.57;;;;;;;20.69;26.68;98813.81;4945113;28;20042;-72
2024/01/25 08:56:39;;;;;;;18.08;10.55;;;;;;;21.24;30.64;98819.72;4961282;28;20071;-73
2024/01/25 08:59:04;;;;;;;16.92;9.45;;;;;;;21.61;28.76;98816.13;4961302;28;20135;-85
2024/01/25 09:01:30;;;;;;;19.27;10.40;;;;;;;22.14;27.26;98815.88;4962468;28;20037;-82
2024/01/25 09:04:00;;;;;;;18.95;10.27;;;;;;;22.45;26.00;98819.25;4962234;28;20046;-86
2024/01/25 09:06:26;;;;;;;16.50;8.93;;;;;;;22.70;27.05;98822.31;4947128;28;20042;-83
2024/01/25 09:08:51;;;;;;;15.45;9.40;;;;;;;22.98;25.07;98811.66;4946275;28;20041;-77
2024/01/25 09:11:17;;;;;;;15.43;9.70;;;;;;;22.97;24.79;98810.00;4977506;28;20030;-77
2024/01/25 09:13:45;;;;;;;14.10;9.48;;;;;;;23.14;23.74;98815.06;4977627;28;20066;-80
2024/01/25 09:16:10;;;;;;;20.05;8.88;;;;;;;23.26;23.39;98803.66;4978375;28;20106;-82
2024/01/25 09:18:36;;;;;;;14.90;8.88;;;;;;;23.21;24.02;98806.06;4960988;28;20076;-79
2024/01/25 09:21:01;;;;;;;15.75;8.77;;;;;;;23.32;24.06;98806.53;4945254;28;20030;-77
2024/01/25 09:23:27;;;;;;;20.73;15.82;;;;;;;23.55;23.75;98806.22;4978476;28;20034;-79
2024/01/25 09:25:52;;;;;;;20.38;17.30;;;;;;;24.86;23.54;98813.81;4945845;28;20038;-81
2024/01/25 09:28:18;;;;;;;19.40;15.43;;;;;;;24.55;26.19;98793.06;4948864;28;20053;-84
2024/01/25 09:30:43;;;;;;;10.00;7.85;;;;;;;25.99;23.91;98785.03;4996561;28;20506;-81
2024/01/25 09:33:09;;;;;;;7.30;4.30;;;;;;;27.32;19.67;98791.06;4944183;28;20081;-79
2024/01/25 09:35:34;;;;;;;12.18;6.20;;;;;;;28.20;21.43;98782.69;4961310;28;20125;-82
2024/01/25 09:38:00;;;;;;;11.60;6.15;;;;;;;28.14;21.35;98779.84;4977053;28;20031;-82
2024/01/25 09:40:25;;;;;;;11.65;5.35;;;;;;;27.16;22.50;98789.78;4978905;28;20053;-88
2024/01/25 09:42:52;;;;;;;7.28;4.28;;;;;;;25.45;24.17;98790.63;4944485;28;20494;-83
2024/01/25 09:45:18;;;;;;;6.10;2.67;;;;;;;24.51;23.25;98781.16;4961015;28;20038;-79
2024/01/25 09:47:44;;;;;;;7.57;3.85;;;;;;;24.88;23.83;98781.56;4961428;28;20026;-83
2024/01/25 09:50:10;;;;;;;9.38;4.47;;;;;;;23.86;26.12;98776.41;4943916;28;20038;-78
2024/01/25 09:52:35;;;;;;;9.60;3.78;;;;;;;23.17;27.49;98769.41;4960197;28;20046;-78
2024/01/25 09:55:01;;;;;;;6.07;2.85;;;;;;;24.59;25.63;98754.31;4944635;28;20023;-78
2024/01/25 09:57:28;;;;;;;3.72;1.65;;;;;;;26.70;23.79;98753.59;4976646;28;20030;-74
2024/01/25 09:59:55;;;;;;;5.90;2.63;;;;;;;28.50;22.44;98761.09;4944620;28;20022;-79
2024/01/25 10:02:20;;;;;;;8.60;2.43;;;;;;;30.13;20.99;98762.75;4960781;28;20449;-77
2024/01/25 10:04:52;;;;;;;4.68;1.80;;;;;;;31.15;20.80;98759.13;4960691;28;20069;-76
2024/01/25 10:07:52;;;;;;;4.57;1.73;;;;;;;31.57;19.51;98763.97;4960145;28;20437;-78
2024/01/25 10:10:18;;;;;;;4.53;1.13;;;;;;;31.62;19.47;98753.22;4961802;28;20571;-77
2024/01/25 10:12:43;;;;;;;5.47;1.60;;;;;;;31.36;19.05;98749.41;4944314;28;20030;-78
2024/01/25 10:15:10;;;;;;;3.35;1.08;;;;;;;30.87;19.33;98755.53;4944684;28;20034;-78
2024/01/25 10:17:35;;;;;;;4.10;1.10;;;;;;;30.47;19.21;98745.81;4944554;28;20117;-80
2024/01/25 10:20:01;;;;;;;2.63;1.00;;;;;;;30.11;18.95;98746.06;4944070;28;20027;-77
2024/01/25 10:22:27;;;;;;;7.47;1.20;;;;;;;29.86;18.57;98733.00;4944082;28;20501;-79
2024/01/25 10:24:53;;;;;;;3.80;0.98;;;;;;;29.34;19.08;98736.59;4960191;28;20042;-77
2024/01/25 10:27:19;;;;;;;6.20;1.20;;;;;;;28.88;19.30;98730.28;4945075;28;20051;-78
2024/01/25 10:29:44;;;;;;;3.15;1.02;;;;;;;28.53;19.39;98728.44;4944472;28;20502;-78
2024/01/25 10:32:10;;;;;;;5.38;1.08;;;;;;;27.96;19.82;98740.50;4976697;28;20058;-79
2024/01/25 10:34:36;;;;;;;3.33;1.25;;;;;;;27.54;19.71;98747.69;4960327;28;20038;-80
2024/01/25 10:37:03;;;;;;;3.38;1.13;;;;;;;27.43;19.19;98723.28;4960790;28;20355;-79
2024/01/25 10:39:29;;;;;;;4.28;1.00;;;;;;;27.42;19.29;98719.00;4960248;28;20033;-80
2024/01/25 10:41:54;;;;;;;5.68;1.45;;;;;;;27.39;19.99;98729.31;4959708;28;20066;-80
2024/01/25 10:44:21;;;;;;;3.72;1.20;;;;;;;27.43;20.02;98715.25;4943623;28;20106;-79
2024/01/25 10:46:49;;;;;;;3.15;1.05;;;;;;;27.20;19.56;98696.34;4943850;28;20061;-79
2024/01/25 10:49:16;;;;;;;4.35;1.10;;;;;;;27.19;19.59;98716.97;4960211;28;20104;-80
2024/01/25 10:51:42;;;;;;;3.30;0.80;;;;;;;27.10;19.63;98710.28;4943573;28;20031;-80
2024/01/25 10:54:08;;;;;;;3.65;0.90;;;;;;;27.02;18.71;98710.59;4960398;28;20040;-77
2024/01/25 10:56:35;;;;;;;3.40;1.00;;;;;;;26.90;19.73;98694.50;4943754;28;20184;-78
2024/01/25 10:59:00;;;;;;;4.43;1.10;;;;;;;26.84;19.41;98695.38;4944567;28;20022;-78
2024/01/25 11:01:27;;;;;;;2.95;1.00;;;;;;;26.89;19.08;98693.66;4943760;28;20041;-81
2024/01/25 11:03:53;;;;;;;4.05;0.80;;;;;;;26.68;19.00;98686.09;4959750;28;20030;-79
2024/01/25 11:06:20;;;;;;;4.13;0.80;;;;;;;26.71;18.59;98696.34;4960085;28;20037;-78
2024/01/25 11:08:46;;;;;;;3.30;0.87;;;;;;;26.60;18.21;98697.88;4959733;28;20065;-77
2024/01/25 11:11:13;;;;;;;5.18;1.17;;;;;;;26.52;17.59;98687.47;4960681;28;20038;-79
2024/01/25 11:13:40;;;;;;;2.88;0.90;;;;;;;26.47;17.79;98704.19;4943310;28;20073;-78
2024/01/25 11:16:15;;;;;;;4.47;1.00;;;;;;;26.53;17.95;98695.28;4943878;28;20035;-80
2024/01/25 11:19:06;;;;;;;3.85;1.00;;;;;;;26.51;17.85;98688.50;4959824;28;20046;-77
2024/01/25 11:21:42;;;;;;;3.28;0.90;;;;;;;26.25;17.62;98690.41;4956270;28;20080;-79
2024/01/25 11:24:25;;;;;;;3.47;0.98;;;;;;;25.92;17.56;98690.63;4944328;28;20034;-77
2024/01/25 11:26:51;;;;;;;5.30;0.70;;;;;;;25.41;17.38;98706.63;4961179;28;20033;-77
2024/01/25 11:29:17;;;;;;;4.05;0.90;;;;;;;25.11;17.85;98708.97;4958710;28;20350;-79
2024/01/25 11:31:47;;;;;;;5.43;0.90;;;;;;;24.70;18.36;98713.63;4943916;28;20027;-78